sensor_id;sensor_type;location;lat;lon;timestamp;pressure;altitude;pressure_sealevel;temperature;humidity
70555;BME280;58104;52.744;15.242;2023-07-24T00:01:11;99986.26;;;25.33;40.00
70555;BME280;58104;52.744;15.242;2023-07-24T00:03:36;99988.10;;;25.31;39.96
70555;BME280;58104;52.744;15.242;2023-07-24T00:06:01;99986.60;;;25.46;39.99
70555;BME280;58104;52.744;15.242;2023-07-24T00:08:27;99985.84;;;25.62;39.96
70555;BME280;58104;52.744;15.242;2023-07-24T00:10:52;99985.93;;;25.41;40.07
70555;BME280;58104;52.744;15.242;2023-07-24T00:13:17;99988.14;;;25.35;40.29
70555;BME280;58104;52.744;15.242;2023-07-24T00:15:43;99983.05;;;25.34;40.47
70555;BME280;58104;52.744;15.242;2023-07-24T00:18:08;99985.25;;;25.28;40.64
70555;BME280;58104;52.744;15.242;2023-07-24T00:20:33;99980.89;;;25.35;40.64
70555;BME280;58104;52.744;15.242;2023-07-24T00:22:59;99983.32;;;25.29;40.78
70555;BME280;58104;52.744;15.242;2023-07-24T00:25:24;99980.31;;;25.29;40.95
70555;BME280;58104;52.744;15.242;2023-07-24T00:27:50;99979.23;;;25.27;41.11
70555;BME280;58104;52.744;15.242;2023-07-24T00:30:15;99972.66;;;25.18;41.26
70555;BME280;58104;52.744;15.242;2023-07-24T00:32:40;99969.87;;;25.29;41.16
70555;BME280;58104;52.744;15.242;2023-07-24T00:35:07;99968.04;;;25.12;41.34
70555;BME280;58104;52.744;15.242;2023-07-24T00:37:31;99968.72;;;25.21;41.29
70555;BME280;58104;52.744;15.242;2023-07-24T00:39:56;99968.33;;;25.18;41.45
70555;BME280;58104;52.744;15.242;2023-07-24T00:42:21;99960.88;;;25.27;41.52
70555;BME280;58104;52.744;15.242;2023-07-24T00:44:47;99957.22;;;25.17;41.47
70555;BME280;58104;52.744;15.242;2023-07-24T00:47:12;99959.76;;;25.21;41.52
70555;BME280;58104;52.744;15.242;2023-07-24T00:49:38;99964.47;;;25.24;41.56
70555;BME280;58104;52.744;15.242;2023-07-24T00:52:04;99961.45;;;25.12;41.63
70555;BME280;58104;52.744;15.242;2023-07-24T00:54:31;99964.88;;;25.21;41.69
70555;BME280;58104;52.744;15.242;2023-07-24T00:56:54;99961.46;;;25.10;41.68
70555;BME280;58104;52.744;15.242;2023-07-24T00:59:19;99962.52;;;25.18;41.54
70555;BME280;58104;52.744;15.242;2023-07-24T01:01:45;99955.71;;;25.24;41.54
70555;BME280;58104;52.744;15.242;2023-07-24T01:04:10;99952.57;;;25.19;41.70
70555;BME280;58104;52.744;15.242;2023-07-24T01:06:35;99950.14;;;25.22;41.64
70555;BME280;58104;52.744;15.242;2023-07-24T01:09:00;99945.19;;;25.27;41.69
70555;BME280;58104;52.744;15.242;2023-07-24T01:11:28;99942.67;;;25.24;41.76
70555;BME280;58104;52.744;15.242;2023-07-24T01:13:56;99941.16;;;25.29;41.82
70555;BME280;58104;52.744;15.242;2023-07-24T01:16:19;99942.08;;;25.24;41.94
70555;BME280;58104;52.744;15.242;2023-07-24T01:18:43;99943.47;;;25.26;41.99
70555;BME280;58104;52.744;15.242;2023-07-24T01:21:09;99940.23;;;25.16;42.07
70555;BME280;58104;52.744;15.242;2023-07-24T01:23:41;99940.49;;;25.22;42.07
70555;BME280;58104;52.744;15.242;2023-07-24T01:26:00;99931.95;;;25.14;42.10
70555;BME280;58104;52.744;15.242;2023-07-24T01:28:23;99930.25;;;25.17;42.10
70555;BME280;58104;52.744;15.242;2023-07-24T01:30:49;99925.71;;;25.27;42.18
70555;BME280;58104;52.744;15.242;2023-07-24T01:33:14;99919.48;;;25.19;42.17
70555;BME280;58104;52.744;15.242;2023-07-24T01:35:41;99916.78;;;25.20;42.26
70555;BME280;58104;52.744;15.242;2023-07-24T01:38:05;99915.89;;;25.29;42.24
70555;BME280;58104;52.744;15.242;2023-07-24T01:40:31;99912.20;;;25.22;42.28
70555;BME280;58104;52.744;15.242;2023-07-24T01:42:56;99906.64;;;25.20;42.40
70555;BME280;58104;52.744;15.242;2023-07-24T01:45:21;99903.30;;;25.25;42.42
70555;BME280;58104;52.744;15.242;2023-07-24T01:47:46;99897.65;;;25.31;42.46
70555;BME280;58104;52.744;15.242;2023-07-24T01:50:12;99892.20;;;25.21;42.53
70555;BME280;58104;52.744;15.242;2023-07-24T01:52:37;99888.40;;;25.22;42.57
70555;BME280;58104;52.744;15.242;2023-07-24T01:55:03;99883.30;;;25.22;42.66
70555;BME280;58104;52.744;15.242;2023-07-24T01:57:27;99879.20;;;25.22;42.58
70555;BME280;58104;52.744;15.242;2023-07-24T01:59:53;99877.33;;;25.17;42.84
70555;BME280;58104;52.744;15.242;2023-07-24T02:02:18;99880.69;;;25.19;42.85
70555;BME280;58104;52.744;15.242;2023-07-24T02:04:46;99879.89;;;25.29;42.82
70555;BME280;58104;52.744;15.242;2023-07-24T02:07:09;99875.10;;;25.30;42.73
70555;BME280;58104;52.744;15.242;2023-07-24T02:09:34;99869.05;;;24.96;41.47
70555;BME280;58104;52.744;15.242;2023-07-24T02:12:00;99870.79;;;25.01;41.91
70555;BME280;58104;52.744;15.242;2023-07-24T02:14:25;99868.20;;;25.03;41.65
70555;BME280;58104;52.744;15.242;2023-07-24T02:16:50;99863.48;;;25.15;41.15
70555;BME280;58104;52.744;15.242;2023-07-24T02:19:16;99856.34;;;25.13;41.54
70555;BME280;58104;52.744;15.242;2023-07-24T02:21:41;99858.62;;;25.21;41.29
70555;BME280;58104;52.744;15.242;2023-07-24T02:24:06;99855.42;;;25.04;41.42
70555;BME280;58104;52.744;15.242;2023-07-24T02:26:32;99850.91;;;25.13;41.09
70555;BME280;58104;52.744;15.242;2023-07-24T02:28:57;99846.23;;;25.30;40.67
70555;BME280;58104;52.744;15.242;2023-07-24T02:31:22;99844.37;;;25.31;40.56
70555;BME280;58104;52.744;15.242;2023-07-24T02:33:47;99845.93;;;25.34;40.43
70555;BME280;58104;52.744;15.242;2023-07-24T02:36:13;99848.52;;;25.43;40.23
70555;BME280;58104;52.744;15.242;2023-07-24T02:38:38;99850.83;;;25.33;40.12
70555;BME280;58104;52.744;15.242;2023-07-24T02:41:03;99845.40;;;25.35;40.32
70555;BME280;58104;52.744;15.242;2023-07-24T02:43:29;99840.05;;;25.31;40.16
70555;BME280;58104;52.744;15.242;2023-07-24T02:45:54;99840.67;;;25.40;40.30
70555;BME280;58104;52.744;15.242;2023-07-24T02:48:19;99832.21;;;25.27;40.48
70555;BME280;58104;52.744;15.242;2023-07-24T02:50:47;99830.11;;;25.40;40.45
70555;BME280;58104;52.744;15.242;2023-07-24T02:53:10;99830.97;;;25.32;40.52
70555;BME280;58104;52.744;15.242;2023-07-24T02:55:35;99832.14;;;25.32;40.42
70555;BME280;58104;52.744;15.242;2023-07-24T02:58:01;99834.53;;;25.46;40.42
70555;BME280;58104;52.744;15.242;2023-07-24T03:00:26;99834.21;;;25.38;40.55
70555;BME280;58104;52.744;15.242;2023-07-24T03:02:52;99831.97;;;25.38;40.62
70555;BME280;58104;52.744;15.242;2023-07-24T03:05:17;99831.88;;;25.39;40.54
70555;BME280;58104;52.744;15.242;2023-07-24T03:07:42;99830.16;;;25.31;40.77
70555;BME280;58104;52.744;15.242;2023-07-24T03:10:08;99824.78;;;25.33;40.72
70555;BME280;58104;52.744;15.242;2023-07-24T03:12:33;99820.70;;;25.30;40.88
70555;BME280;58104;52.744;15.242;2023-07-24T03:14:58;99825.37;;;25.19;40.94
70555;BME280;58104;52.744;15.242;2023-07-24T03:17:23;99834.02;;;25.25;40.90
70555;BME280;58104;52.744;15.242;2023-07-24T03:19:49;99837.79;;;25.16;41.11
70555;BME280;58104;52.744;15.242;2023-07-24T03:22:14;99839.47;;;24.70;41.80
70555;BME280;58104;52.744;15.242;2023-07-24T03:24:40;99839.98;;;24.58;41.99
70555;BME280;58104;52.744;15.242;2023-07-24T03:27:05;99840.70;;;24.56;41.94
70555;BME280;58104;52.744;15.242;2023-07-24T03:29:30;99838.14;;;24.54;41.76
70555;BME280;58104;52.744;15.242;2023-07-24T03:31:56;99839.18;;;24.65;41.74
70555;BME280;58104;52.744;15.242;2023-07-24T03:34:21;99848.29;;;24.72;41.50
70555;BME280;58104;52.744;15.242;2023-07-24T03:36:46;99849.58;;;24.71;41.42
70555;BME280;58104;52.744;15.242;2023-07-24T03:39:12;99853.26;;;24.65;41.34
70555;BME280;58104;52.744;15.242;2023-07-24T03:41:37;99847.34;;;24.61;41.39
70555;BME280;58104;52.744;15.242;2023-07-24T03:44:02;99847.01;;;24.55;41.55
70555;BME280;58104;52.744;15.242;2023-07-24T03:46:27;99847.07;;;24.59;41.37
70555;BME280;58104;52.744;15.242;2023-07-24T03:48:53;99844.65;;;24.61;41.48
70555;BME280;58104;52.744;15.242;2023-07-24T03:51:18;99847.73;;;24.62;41.51
70555;BME280;58104;52.744;15.242;2023-07-24T03:53:43;99843.23;;;24.66;41.30
70555;BME280;58104;52.744;15.242;2023-07-24T03:56:08;99840.10;;;24.74;41.67
70555;BME280;58104;52.744;15.242;2023-07-24T03:58:34;99844.62;;;24.82;41.24
70555;BME280;58104;52.744;15.242;2023-07-24T04:01:00;99840.96;;;24.78;41.25
70555;BME280;58104;52.744;15.242;2023-07-24T04:03:25;99848.33;;;24.90;41.27
70555;BME280;58104;52.744;15.242;2023-07-24T04:05:50;99853.02;;;24.82;41.20
70555;BME280;58104;52.744;15.242;2023-07-24T04:08:15;99857.99;;;24.90;41.18
70555;BME280;58104;52.744;15.242;2023-07-24T04:10:40;99855.41;;;25.03;41.19
70555;BME280;58104;52.744;15.242;2023-07-24T04:13:06;99854.61;;;24.98;41.00
70555;BME280;58104;52.744;15.242;2023-07-24T04:15:31;99854.67;;;25.01;40.87
70555;BME280;58104;52.744;15.242;2023-07-24T04:17:56;99850.17;;;25.10;40.95
70555;BME280;58104;52.744;15.242;2023-07-24T04:20:22;99847.35;;;25.07;41.03
70555;BME280;58104;52.744;15.242;2023-07-24T04:22:47;99844.07;;;25.09;40.96
70555;BME280;58104;52.744;15.242;2023-07-24T04:25:13;99841.77;;;25.09;41.00
70555;BME280;58104;52.744;15.242;2023-07-24T04:27:38;99844.54;;;25.10;40.96
70555;BME280;58104;52.744;15.242;2023-07-24T04:30:04;99843.53;;;25.02;40.86
70555;BME280;58104;52.744;15.242;2023-07-24T04:32:29;99839.48;;;25.12;40.79
70555;BME280;58104;52.744;15.242;2023-07-24T04:34:54;99843.89;;;25.11;40.73
70555;BME280;58104;52.744;15.242;2023-07-24T04:37:19;99844.24;;;25.23;40.84
70555;BME280;58104;52.744;15.242;2023-07-24T04:39:45;99845.90;;;25.14;41.11
70555;BME280;58104;52.744;15.242;2023-07-24T04:42:10;99843.26;;;25.16;40.95
70555;BME280;58104;52.744;15.242;2023-07-24T04:44:35;99848.26;;;25.10;40.94
70555;BME280;58104;52.744;15.242;2023-07-24T04:47:01;99847.20;;;25.05;41.01
70555;BME280;58104;52.744;15.242;2023-07-24T04:49:28;99846.02;;;25.03;41.22
70555;BME280;58104;52.744;15.242;2023-07-24T04:51:51;99843.23;;;25.04;41.23
70555;BME280;58104;52.744;15.242;2023-07-24T04:54:17;99843.29;;;24.98;40.95
70555;BME280;58104;52.744;15.242;2023-07-24T04:56:42;99842.45;;;25.07;41.07
70555;BME280;58104;52.744;15.242;2023-07-24T04:59:07;99840.92;;;25.00;41.08
70555;BME280;58104;52.744;15.242;2023-07-24T05:01:33;99837.12;;;24.99;41.19
70555;BME280;58104;52.744;15.242;2023-07-24T05:03:58;99836.11;;;25.02;40.87
70555;BME280;58104;52.744;15.242;2023-07-24T05:06:23;99835.02;;;24.92;41.63
70555;BME280;58104;52.744;15.242;2023-07-24T05:08:49;99835.29;;;24.95;41.13
70555;BME280;58104;52.744;15.242;2023-07-24T05:11:14;99837.96;;;24.90;41.39
70555;BME280;58104;52.744;15.242;2023-07-24T05:13:40;99837.70;;;24.96;41.40
70555;BME280;58104;52.744;15.242;2023-07-24T05:16:05;99842.42;;;24.91;41.42
70555;BME280;58104;52.744;15.242;2023-07-24T05:18:30;99838.42;;;24.98;40.92
70555;BME280;58104;52.744;15.242;2023-07-24T05:20:56;99834.75;;;24.77;41.51
70555;BME280;58104;52.744;15.242;2023-07-24T05:23:21;99835.87;;;24.85;41.20
70555;BME280;58104;52.744;15.242;2023-07-24T05:25:46;99830.51;;;24.43;42.59
70555;BME280;58104;52.744;15.242;2023-07-24T05:28:12;99833.44;;;24.65;42.08
70555;BME280;58104;52.744;15.242;2023-07-24T05:30:37;99836.14;;;24.35;42.95
70555;BME280;58104;52.744;15.242;2023-07-24T05:33:02;99833.18;;;24.55;42.26
70555;BME280;58104;52.744;15.242;2023-07-24T05:35:27;99832.36;;;24.96;41.52
70555;BME280;58104;52.744;15.242;2023-07-24T05:37:53;99831.65;;;24.83;41.73
70555;BME280;58104;52.744;15.242;2023-07-24T05:40:18;99829.58;;;24.66;42.44
70555;BME280;58104;52.744;15.242;2023-07-24T05:42:44;99826.95;;;24.89;41.89
70555;BME280;58104;52.744;15.242;2023-07-24T05:45:10;99823.39;;;24.64;42.25
70555;BME280;58104;52.744;15.242;2023-07-24T05:47:34;99815.96;;;24.39;43.42
70555;BME280;58104;52.744;15.242;2023-07-24T05:50:00;99814.96;;;24.57;42.71
70555;BME280;58104;52.744;15.242;2023-07-24T05:52:25;99816.23;;;24.74;42.86
70555;BME280;58104;52.744;15.242;2023-07-24T05:54:50;99812.55;;;24.75;42.56
70555;BME280;58104;52.744;15.242;2023-07-24T05:57:16;99810.31;;;24.82;42.55
70555;BME280;58104;52.744;15.242;2023-07-24T05:59:41;99803.97;;;25.05;42.18
70555;BME280;58104;52.744;15.242;2023-07-24T06:02:06;99800.42;;;24.95;42.60
70555;BME280;58104;52.744;15.242;2023-07-24T06:04:31;99799.31;;;24.93;42.58
70555;BME280;58104;52.744;15.242;2023-07-24T06:06:57;99795.24;;;25.00;42.70
70555;BME280;58104;52.744;15.242;2023-07-24T06:09:22;99793.07;;;24.95;43.11
70555;BME280;58104;52.744;15.242;2023-07-24T06:11:48;99794.94;;;24.84;43.39
70555;BME280;58104;52.744;15.242;2023-07-24T06:14:13;99800.23;;;24.82;43.16
70555;BME280;58104;52.744;15.242;2023-07-24T06:16:38;99792.28;;;24.92;42.91
70555;BME280;58104;52.744;15.242;2023-07-24T06:19:04;99798.52;;;24.82;43.52
70555;BME280;58104;52.744;15.242;2023-07-24T06:21:29;99808.88;;;24.84;43.82
70555;BME280;58104;52.744;15.242;2023-07-24T06:23:54;99803.61;;;24.51;44.68
70555;BME280;58104;52.744;15.242;2023-07-24T06:26:20;99794.71;;;24.72;43.62
70555;BME280;58104;52.744;15.242;2023-07-24T06:28:45;99794.53;;;24.68;44.41
70555;BME280;58104;52.744;15.242;2023-07-24T06:31:10;99790.49;;;24.72;44.67
70555;BME280;58104;52.744;15.242;2023-07-24T06:33:36;99791.15;;;24.73;44.43
70555;BME280;58104;52.744;15.242;2023-07-24T06:36:01;99786.63;;;25.12;43.89
70555;BME280;58104;52.744;15.242;2023-07-24T06:38:26;99776.33;;;25.23;43.25
70555;BME280;58104;52.744;15.242;2023-07-24T06:40:52;99779.00;;;25.07;43.88
70555;BME280;58104;52.744;15.242;2023-07-24T06:43:17;99779.10;;;24.77;44.91
70555;BME280;58104;52.744;15.242;2023-07-24T06:45:42;99777.65;;;24.90;43.93
70555;BME280;58104;52.744;15.242;2023-07-24T06:48:08;99775.78;;;25.15;43.72
70555;BME280;58104;52.744;15.242;2023-07-24T06:50:33;99771.23;;;25.07;44.33
70555;BME280;58104;52.744;15.242;2023-07-24T06:52:59;99767.30;;;25.02;44.27
70555;BME280;58104;52.744;15.242;2023-07-24T06:55:24;99768.54;;;25.16;44.22
70555;BME280;58104;52.744;15.242;2023-07-24T06:57:49;99768.34;;;24.98;44.38
70555;BME280;58104;52.744;15.242;2023-07-24T07:00:15;99763.92;;;25.02;44.41
70555;BME280;58104;52.744;15.242;2023-07-24T07:02:40;99762.53;;;24.94;44.09
70555;BME280;58104;52.744;15.242;2023-07-24T07:05:06;99763.04;;;25.05;44.11
70555;BME280;58104;52.744;15.242;2023-07-24T07:07:31;99760.88;;;25.25;43.91
70555;BME280;58104;52.744;15.242;2023-07-24T07:09:56;99755.09;;;25.07;44.15
70555;BME280;58104;52.744;15.242;2023-07-24T07:12:22;99758.54;;;25.03;44.56
70555;BME280;58104;52.744;15.242;2023-07-24T07:14:47;99765.73;;;25.07;44.96
70555;BME280;58104;52.744;15.242;2023-07-24T07:17:12;99761.60;;;25.04;44.98
70555;BME280;58104;52.744;15.242;2023-07-24T07:19:38;99755.71;;;24.96;45.06
70555;BME280;58104;52.744;15.242;2023-07-24T07:22:04;99760.69;;;25.01;44.90
70555;BME280;58104;52.744;15.242;2023-07-24T07:24:28;99759.84;;;24.98;44.75
70555;BME280;58104;52.744;15.242;2023-07-24T07:26:54;99759.54;;;25.07;44.73
70555;BME280;58104;52.744;15.242;2023-07-24T07:29:19;99760.62;;;25.16;44.69
70555;BME280;58104;52.744;15.242;2023-07-24T07:31:45;99752.77;;;25.07;45.04
70555;BME280;58104;52.744;15.242;2023-07-24T07:34:10;99758.42;;;25.01;45.28
70555;BME280;58104;52.744;15.242;2023-07-24T07:36:35;99760.90;;;24.98;45.21
70555;BME280;58104;52.744;15.242;2023-07-24T07:39:01;99759.55;;;24.96;45.23
70555;BME280;58104;52.744;15.242;2023-07-24T07:41:26;99758.18;;;24.96;45.21
70555;BME280;58104;52.744;15.242;2023-07-24T07:43:51;99757.38;;;25.13;45.08
70555;BME280;58104;52.744;15.242;2023-07-24T07:46:17;99752.59;;;25.00;45.15
70555;BME280;58104;52.744;15.242;2023-07-24T07:48:42;99748.67;;;25.14;44.85
70555;BME280;58104;52.744;15.242;2023-07-24T07:51:08;99751.58;;;24.91;45.35
70555;BME280;58104;52.744;15.242;2023-07-24T07:53:33;99749.22;;;25.06;44.45
70555;BME280;58104;52.744;15.242;2023-07-24T07:55:58;99745.85;;;25.19;44.41
70555;BME280;58104;52.744;15.242;2023-07-24T07:58:24;99748.16;;;25.17;44.69
70555;BME280;58104;52.744;15.242;2023-07-24T08:00:49;99741.72;;;25.15;44.70
70555;BME280;58104;52.744;15.242;2023-07-24T08:03:14;99738.55;;;25.27;44.33
70555;BME280;58104;52.744;15.242;2023-07-24T08:05:40;99737.34;;;25.29;44.34
70555;BME280;58104;52.744;15.242;2023-07-24T08:08:05;99744.68;;;25.46;43.95
70555;BME280;58104;52.744;15.242;2023-07-24T08:10:30;99749.30;;;25.21;44.75
70555;BME280;58104;52.744;15.242;2023-07-24T08:12:56;99746.11;;;25.22;44.59
70555;BME280;58104;52.744;15.242;2023-07-24T08:15:21;99748.52;;;25.29;44.43
70555;BME280;58104;52.744;15.242;2023-07-24T08:17:46;99745.42;;;25.49;43.89
70555;BME280;58104;52.744;15.242;2023-07-24T08:20:12;99743.06;;;25.38;44.14
70555;BME280;58104;52.744;15.242;2023-07-24T08:22:37;99746.84;;;25.29;44.62
70555;BME280;58104;52.744;15.242;2023-07-24T08:25:03;99749.90;;;25.60;43.76
70555;BME280;58104;52.744;15.242;2023-07-24T08:27:28;99746.74;;;25.53;44.00
70555;BME280;58104;52.744;15.242;2023-07-24T08:29:53;99751.63;;;25.51;43.89
70555;BME280;58104;52.744;15.242;2023-07-24T08:32:19;99751.13;;;25.48;43.91
70555;BME280;58104;52.744;15.242;2023-07-24T08:34:44;99752.43;;;25.40;44.05
70555;BME280;58104;52.744;15.242;2023-07-24T08:37:09;99748.04;;;25.46;44.00
70555;BME280;58104;52.744;15.242;2023-07-24T08:39:34;99745.07;;;25.51;43.92
70555;BME280;58104;52.744;15.242;2023-07-24T08:42:09;99742.95;;;25.60;43.83
70555;BME280;58104;52.744;15.242;2023-07-24T08:44:28;99747.05;;;25.53;43.91
70555;BME280;58104;52.744;15.242;2023-07-24T08:46:51;99736.63;;;25.55;43.74
70555;BME280;58104;52.744;15.242;2023-07-24T08:49:16;99736.57;;;25.54;43.68
70555;BME280;58104;52.744;15.242;2023-07-24T08:51:42;99737.10;;;25.49;43.78
70555;BME280;58104;52.744;15.242;2023-07-24T08:54:07;99734.25;;;25.50;43.53
70555;BME280;58104;52.744;15.242;2023-07-24T08:56:32;99730.86;;;25.56;43.38
70555;BME280;58104;52.744;15.242;2023-07-24T08:58:57;99730.65;;;25.55;43.46
70555;BME280;58104;52.744;15.242;2023-07-24T09:01:23;99731.38;;;25.65;43.20
70555;BME280;58104;52.744;15.242;2023-07-24T09:03:48;99719.10;;;25.65;43.12
70555;BME280;58104;52.744;15.242;2023-07-24T09:06:13;99722.95;;;25.62;42.89
70555;BME280;58104;52.744;15.242;2023-07-24T09:08:41;99717.10;;;25.66;42.77
70555;BME280;58104;52.744;15.242;2023-07-24T09:11:05;99726.71;;;25.83;42.69
70555;BME280;58104;52.744;15.242;2023-07-24T09:13:30;99724.11;;;25.66;42.84
70555;BME280;58104;52.744;15.242;2023-07-24T09:15:55;99713.10;;;25.75;42.59
70555;BME280;58104;52.744;15.242;2023-07-24T09:18:20;99711.09;;;25.78;42.26
70555;BME280;58104;52.744;15.242;2023-07-24T09:20:46;99705.46;;;25.85;42.17
70555;BME280;58104;52.744;15.242;2023-07-24T09:23:13;99702.14;;;25.70;42.12
70555;BME280;58104;52.744;15.242;2023-07-24T09:25:38;99694.91;;;25.86;41.97
70555;BME280;58104;52.744;15.242;2023-07-24T09:28:10;99696.86;;;25.89;41.91
70555;BME280;58104;52.744;15.242;2023-07-24T09:30:27;99692.69;;;25.97;41.79
70555;BME280;58104;52.744;15.242;2023-07-24T09:32:53;99691.76;;;26.09;41.64
70555;BME280;58104;52.744;15.242;2023-07-24T09:35:18;99698.63;;;26.19;41.69
70555;BME280;58104;52.744;15.242;2023-07-24T09:37:44;99700.23;;;26.25;41.74
70555;BME280;58104;52.744;15.242;2023-07-24T09:40:10;99692.68;;;26.24;41.56
70555;BME280;58104;52.744;15.242;2023-07-24T09:42:36;99695.87;;;26.27;41.57
70555;BME280;58104;52.744;15.242;2023-07-24T09:45:00;99700.79;;;26.35;41.50
70555;BME280;58104;52.744;15.242;2023-07-24T09:47:25;99696.38;;;26.36;41.48
70555;BME280;58104;52.744;15.242;2023-07-24T09:49:51;99686.33;;;26.38;41.54
70555;BME280;58104;52.744;15.242;2023-07-24T09:52:18;99685.20;;;26.30;41.60
70555;BME280;58104;52.744;15.242;2023-07-24T09:54:49;99681.39;;;26.32;41.60
70555;BME280;58104;52.744;15.242;2023-07-24T09:57:07;99673.05;;;26.31;41.54
70555;BME280;58104;52.744;15.242;2023-07-24T09:59:31;99678.71;;;26.26;41.52
70555;BME280;58104;52.744;15.242;2023-07-24T10:01:57;99669.84;;;26.43;41.28
70555;BME280;58104;52.744;15.242;2023-07-24T10:04:22;99660.73;;;26.33;41.32
70555;BME280;58104;52.744;15.242;2023-07-24T10:06:47;99653.68;;;26.18;41.60
70555;BME280;58104;52.744;15.242;2023-07-24T10:09:13;99664.99;;;26.17;40.91
70555;BME280;58104;52.744;15.242;2023-07-24T10:11:38;99664.10;;;26.02;40.81
70555;BME280;58104;52.744;15.242;2023-07-24T10:14:03;99669.70;;;26.17;40.94
70555;BME280;58104;52.744;15.242;2023-07-24T10:16:29;99666.27;;;26.13;41.52
70555;BME280;58104;52.744;15.242;2023-07-24T10:18:54;99660.53;;;26.37;41.33
70555;BME280;58104;52.744;15.242;2023-07-24T10:21:26;99656.53;;;26.39;41.23
70555;BME280;58104;52.744;15.242;2023-07-24T10:23:45;99652.09;;;26.28;40.66
70555;BME280;58104;52.744;15.242;2023-07-24T10:26:10;99655.44;;;26.33;40.12
70555;BME280;58104;52.744;15.242;2023-07-24T10:28:36;99649.75;;;26.25;40.15
70555;BME280;58104;52.744;15.242;2023-07-24T10:31:01;99642.34;;;26.25;40.13
70555;BME280;58104;52.744;15.242;2023-07-24T10:33:30;99640.78;;;26.34;39.93
70555;BME280;58104;52.744;15.242;2023-07-24T10:35:53;99646.07;;;26.24;39.99
70555;BME280;58104;52.744;15.242;2023-07-24T10:38:17;99637.59;;;26.31;39.98
70555;BME280;58104;52.744;15.242;2023-07-24T10:40:43;99627.55;;;26.22;40.46
70555;BME280;58104;52.744;15.242;2023-07-24T10:43:08;99630.54;;;26.22;40.22
70555;BME280;58104;52.744;15.242;2023-07-24T10:45:41;99644.66;;;26.15;40.38
70555;BME280;58104;52.744;15.242;2023-07-24T10:47:58;99642.34;;;26.31;40.10
70555;BME280;58104;52.744;15.242;2023-07-24T10:50:23;99633.44;;;26.21;39.99
70555;BME280;58104;52.744;15.242;2023-07-24T10:52:48;99638.87;;;26.03;40.36
70555;BME280;58104;52.744;15.242;2023-07-24T10:55:14;99642.70;;;26.18;39.92
70555;BME280;58104;52.744;15.242;2023-07-24T10:57:39;99634.55;;;26.30;40.01
70555;BME280;58104;52.744;15.242;2023-07-24T11:00:06;99631.87;;;26.35;39.74
70555;BME280;58104;52.744;15.242;2023-07-24T11:02:30;99631.11;;;26.33;39.82
70555;BME280;58104;52.744;15.242;2023-07-24T11:04:58;99618.96;;;26.35;39.88
70555;BME280;58104;52.744;15.242;2023-07-24T11:07:20;99615.53;;;26.34;39.77
70555;BME280;58104;52.744;15.242;2023-07-24T11:09:46;99608.14;;;26.34;39.76
70555;BME280;58104;52.744;15.242;2023-07-24T11:12:14;99603.38;;;26.06;40.40
70555;BME280;58104;52.744;15.242;2023-07-24T11:14:47;99593.50;;;26.26;39.80
70555;BME280;58104;52.744;15.242;2023-07-24T11:17:03;99590.21;;;26.23;39.95
70555;BME280;58104;52.744;15.242;2023-07-24T11:19:27;99590.48;;;26.32;39.71
70555;BME280;58104;52.744;15.242;2023-07-24T11:21:53;99599.18;;;26.11;40.08
70555;BME280;58104;52.744;15.242;2023-07-24T11:24:18;99590.22;;;26.22;39.50
70555;BME280;58104;52.744;15.242;2023-07-24T11:26:43;99581.09;;;26.09;39.79
70555;BME280;58104;52.744;15.242;2023-07-24T11:29:11;99564.50;;;26.03;39.82
70555;BME280;58104;52.744;15.242;2023-07-24T11:31:36;99561.39;;;26.06;39.73
70555;BME280;58104;52.744;15.242;2023-07-24T11:34:00;99546.05;;;26.09;39.73
70555;BME280;58104;52.744;15.242;2023-07-24T11:36:25;99538.68;;;26.14;39.48
70555;BME280;58104;52.744;15.242;2023-07-24T11:38:50;99544.29;;;26.22;38.95
70555;BME280;58104;52.744;15.242;2023-07-24T11:41:16;99547.66;;;26.19;38.74
70555;BME280;58104;52.744;15.242;2023-07-24T11:43:45;99554.90;;;26.17;38.80
70555;BME280;58104;52.744;15.242;2023-07-24T11:46:06;99536.51;;;26.28;38.96
70555;BME280;58104;52.744;15.242;2023-07-24T11:48:31;99538.37;;;26.25;38.70
70555;BME280;58104;52.744;15.242;2023-07-24T11:50:57;99533.28;;;26.41;38.83
70555;BME280;58104;52.744;15.242;2023-07-24T11:53:23;99530.39;;;26.38;38.53
70555;BME280;58104;52.744;15.242;2023-07-24T11:55:47;99528.18;;;26.34;38.21
70555;BME280;58104;52.744;15.242;2023-07-24T11:58:15;99525.37;;;26.32;38.35
70555;BME280;58104;52.744;15.242;2023-07-24T12:00:38;99517.97;;;26.37;38.27
70555;BME280;58104;52.744;15.242;2023-07-24T12:03:03;99524.74;;;26.47;38.14
70555;BME280;58104;52.744;15.242;2023-07-24T12:05:29;99518.82;;;26.59;38.21
70555;BME280;58104;52.744;15.242;2023-07-24T12:07:54;99497.94;;;26.53;37.96
70555;BME280;58104;52.744;15.242;2023-07-24T12:10:25;99502.17;;;26.37;38.19
70555;BME280;58104;52.744;15.242;2023-07-24T12:12:46;99504.12;;;26.23;38.58
70555;BME280;58104;52.744;15.242;2023-07-24T12:15:10;99496.73;;;26.53;37.72
70555;BME280;58104;52.744;15.242;2023-07-24T12:17:36;99499.42;;;26.49;38.09
70555;BME280;58104;52.744;15.242;2023-07-24T12:20:00;99484.19;;;26.47;37.81
70555;BME280;58104;52.744;15.242;2023-07-24T12:22:26;99471.14;;;26.53;38.06
70555;BME280;58104;52.744;15.242;2023-07-24T12:24:51;99476.54;;;26.45;38.24
70555;BME280;58104;52.744;15.242;2023-07-24T12:27:16;99467.03;;;26.57;38.08
70555;BME280;58104;52.744;15.242;2023-07-24T12:29:42;99472.49;;;26.69;37.86
70555;BME280;58104;52.744;15.242;2023-07-24T12:32:07;99479.08;;;26.49;38.02
70555;BME280;58104;52.744;15.242;2023-07-24T12:34:32;99478.09;;;26.45;38.29
70555;BME280;58104;52.744;15.242;2023-07-24T12:36:58;99479.08;;;26.48;38.39
70555;BME280;58104;52.744;15.242;2023-07-24T12:39:23;99474.80;;;26.37;38.23